createdAt,value
2019-03-30T00:00:31.357Z,81.80
2019-03-30T00:02:59.151Z,81.90
2019-03-30T00:05:27.115Z,82.00
2019-03-30T00:07:54.965Z,82.00
2019-03-30T00:10:22.765Z,82.00
2019-03-30T00:12:50.627Z,82.10
2019-03-30T00:15:18.565Z,82.10
2019-03-30T00:17:47.205Z,82.10
2019-03-30T00:20:15.117Z,82.30
2019-03-30T00:22:42.909Z,82.30
2019-03-30T00:25:10.665Z,82.50
2019-03-30T00:27:38.511Z,82.70
2019-03-30T00:30:06.521Z,83.00
2019-03-30T00:32:34.373Z,83.10
2019-03-30T00:35:02.295Z,83.30
2019-03-30T00:37:30.071Z,83.50
2019-03-30T00:39:57.829Z,83.70
2019-03-30T00:42:25.673Z,83.90
2019-03-30T00:44:53.553Z,84.20
2019-03-30T00:47:21.434Z,84.40
2019-03-30T00:49:50.199Z,84.50
2019-03-30T00:52:18.185Z,84.60
2019-03-30T00:54:46.023Z,84.80
2019-03-30T00:57:13.887Z,84.80
2019-03-30T00:59:41.753Z,85.00
2019-03-30T01:02:09.656Z,85.10
2019-03-30T01:04:37.401Z,85.40
2019-03-30T01:07:05.186Z,85.50
2019-03-30T01:09:33.042Z,85.50
2019-03-30T01:12:00.959Z,85.60
2019-03-30T01:14:28.844Z,85.90
2019-03-30T01:16:56.741Z,86.10
2019-03-30T01:19:24.657Z,86.30
2019-03-30T01:21:52.569Z,86.40
2019-03-30T01:24:20.433Z,86.50
2019-03-30T01:26:48.302Z,86.80
2019-03-30T01:29:16.189Z,87.10
2019-03-30T01:31:44.070Z,88.10
2019-03-30T01:34:11.909Z,87.40
2019-03-30T01:36:40.045Z,87.50
2019-03-30T01:39:08.895Z,87.60
2019-03-30T01:41:36.754Z,87.70
2019-03-30T01:44:04.676Z,87.90
2019-03-30T01:46:32.450Z,88.10
2019-03-30T01:49:00.285Z,88.20
2019-03-30T01:51:28.188Z,88.30
2019-03-30T01:53:56.029Z,89.00
2019-03-30T01:56:23.906Z,89.30
2019-03-30T01:58:51.781Z,89.30
2019-03-30T02:01:19.659Z,89.50
2019-03-30T02:03:47.565Z,89.40
2019-03-30T02:06:15.421Z,89.50
2019-03-30T02:08:43.174Z,89.70
2019-03-30T02:11:10.923Z,90.00
2019-03-30T02:13:38.798Z,90.00
2019-03-30T02:16:06.690Z,90.10
2019-03-30T02:18:34.519Z,90.10
2019-03-30T02:21:02.359Z,90.50
2019-03-30T02:23:30.254Z,90.20
2019-03-30T02:25:58.002Z,90.20
2019-03-30T02:28:25.777Z,90.30
2019-03-30T02:30:53.648Z,90.40
2019-03-30T02:33:21.419Z,90.40
2019-03-30T02:35:49.278Z,90.50
2019-03-30T02:38:17.255Z,90.60
2019-03-30T02:40:45.127Z,90.60
2019-03-30T02:43:12.925Z,90.60
2019-03-30T02:45:40.778Z,90.70
2019-03-30T02:48:08.644Z,90.70
2019-03-30T02:50:49.096Z,90.70
2019-03-30T02:53:06.198Z,90.70
2019-03-30T02:55:34.077Z,90.80
2019-03-30T02:58:01.934Z,90.80
2019-03-30T03:00:29.809Z,90.90
2019-03-30T03:02:57.806Z,90.90
2019-03-30T03:05:25.691Z,91.00
2019-03-30T03:07:53.446Z,91.10
2019-03-30T03:10:21.350Z,91.10
2019-03-30T03:12:49.102Z,91.10
2019-03-30T03:15:16.987Z,91.20
2019-03-30T03:17:44.760Z,91.30
2019-03-30T03:20:12.645Z,91.30
2019-03-30T03:22:40.609Z,91.30
2019-03-30T03:25:08.526Z,91.30
2019-03-30T03:27:36.396Z,91.40
2019-03-30T03:30:05.054Z,91.50
2019-03-30T03:32:33.003Z,91.60
2019-03-30T03:35:00.960Z,91.80
2019-03-30T03:37:43.126Z,91.90
2019-03-30T03:39:58.545Z,91.90
2019-03-30T03:42:26.602Z,91.90
2019-03-30T03:44:54.402Z,91.90
2019-03-30T03:47:22.174Z,92.00
2019-03-30T03:49:50.047Z,91.90
2019-03-30T03:52:18.408Z,92.00
2019-03-30T03:54:46.292Z,92.00
2019-03-30T03:57:17.789Z,92.00
2019-03-30T03:59:50.174Z,92.10
2019-03-30T04:02:19.052Z,92.20
2019-03-30T04:04:48.947Z,92.20
2019-03-30T04:07:19.219Z,92.30
2019-03-30T04:09:50.303Z,92.30
2019-03-30T04:12:21.700Z,92.30
2019-03-30T04:14:51.477Z,92.40
2019-03-30T04:17:19.578Z,92.40
2019-03-30T04:19:47.434Z,92.50
2019-03-30T04:22:15.188Z,92.50
2019-03-30T04:24:43.045Z,92.60
2019-03-30T04:27:10.915Z,92.70
2019-03-30T04:29:38.900Z,92.80
2019-03-30T04:32:06.666Z,92.90
2019-03-30T04:34:34.419Z,92.90
2019-03-30T04:37:02.309Z,92.90
2019-03-30T04:39:30.171Z,93.00
2019-03-30T04:41:59.710Z,93.00
2019-03-30T04:44:27.464Z,93.00
2019-03-30T04:46:55.321Z,93.10
2019-03-30T04:49:23.099Z,93.10
2019-03-30T04:51:57.409Z,93.10
2019-03-30T04:54:20.645Z,93.10
2019-03-30T04:56:48.567Z,93.20
2019-03-30T04:59:16.553Z,93.20
2019-03-30T05:01:44.313Z,93.20
2019-03-30T05:04:12.101Z,93.30
2019-03-30T05:06:40.001Z,93.30
2019-03-30T05:09:07.931Z,93.30
2019-03-30T05:11:35.796Z,93.30
2019-03-30T05:14:03.693Z,93.30
2019-03-30T05:16:31.551Z,93.30
2019-03-30T05:18:59.321Z,93.20
2019-03-30T05:21:27.193Z,93.30
2019-03-30T05:23:55.093Z,93.30
2019-03-30T05:26:23.015Z,93.40
2019-03-30T05:28:50.895Z,93.40
2019-03-30T05:31:18.780Z,93.40
2019-03-30T05:33:46.741Z,93.40
2019-03-30T05:36:14.609Z,93.40
2019-03-30T05:38:42.577Z,93.40
2019-03-30T05:41:10.485Z,93.40
2019-03-30T05:43:38.497Z,93.40
2019-03-30T05:46:06.393Z,93.40
2019-03-30T05:48:34.361Z,93.40
2019-03-30T05:51:02.369Z,93.30
2019-03-30T05:53:30.345Z,93.30
2019-03-30T05:55:58.243Z,93.30
2019-03-30T05:58:26.033Z,93.30
2019-03-30T06:00:53.892Z,93.20
2019-03-30T06:03:21.773Z,93.10
2019-03-30T06:05:49.669Z,93.10
2019-03-30T06:08:17.573Z,93.00
2019-03-30T06:10:45.453Z,92.90
2019-03-30T06:13:13.255Z,92.80
2019-03-30T06:15:41.137Z,92.60
2019-03-30T06:18:11.359Z,92.60
2019-03-30T06:20:38.794Z,92.50
2019-03-30T06:23:06.681Z,92.30
2019-03-30T06:25:34.600Z,92.20
2019-03-30T06:28:02.349Z,92.20
2019-03-30T06:30:30.199Z,92.10
2019-03-30T06:32:58.088Z,92.00
2019-03-30T06:35:26.092Z,91.90
2019-03-30T06:37:53.861Z,91.80
2019-03-30T06:40:21.749Z,91.70
2019-03-30T06:42:49.585Z,91.60
2019-03-30T06:45:17.468Z,91.50
2019-03-30T06:47:45.220Z,91.40
2019-03-30T06:50:13.928Z,91.30
2019-03-30T06:52:56.385Z,91.20
2019-03-30T06:55:11.592Z,91.10
2019-03-30T06:57:39.352Z,90.90
2019-03-30T07:00:08.143Z,90.80
2019-03-30T07:02:36.384Z,90.70
2019-03-30T07:05:04.894Z,90.50
2019-03-30T07:07:32.925Z,90.30
2019-03-30T07:10:03.395Z,90.20
2019-03-30T07:12:35.020Z,90.10
2019-03-30T07:15:03.413Z,89.80
2019-03-30T07:17:33.793Z,89.40
2019-03-30T07:20:03.467Z,88.70
2019-03-30T07:22:31.372Z,88.20
2019-03-30T07:24:59.258Z,87.90
2019-03-30T07:27:27.116Z,87.30
2019-03-30T07:29:55.056Z,86.50
2019-03-30T07:32:22.884Z,85.80
2019-03-30T07:34:50.729Z,85.80
2019-03-30T07:37:18.616Z,85.70
2019-03-30T07:39:46.460Z,85.70
2019-03-30T07:42:14.334Z,85.50
2019-03-30T07:44:42.573Z,85.10
2019-03-30T07:47:10.461Z,84.70
2019-03-30T07:49:38.323Z,83.90
2019-03-30T07:52:06.101Z,83.50
2019-03-30T07:54:33.978Z,82.80
2019-03-30T07:57:06.263Z,82.30
2019-03-30T07:59:31.431Z,82.20
2019-03-30T08:01:59.192Z,81.80
2019-03-30T08:04:28.622Z,82.00
2019-03-30T08:06:56.728Z,80.40
2019-03-30T08:09:24.643Z,79.70
2019-03-30T08:11:52.483Z,78.90
2019-03-30T08:14:20.302Z,78.10
2019-03-30T08:16:48.194Z,77.30
2019-03-30T08:19:16.046Z,76.60
2019-03-30T08:21:43.913Z,75.20
2019-03-30T08:24:11.752Z,74.70
2019-03-30T08:26:39.672Z,73.80
2019-03-30T08:29:07.544Z,73.30
2019-03-30T08:31:35.425Z,72.40
2019-03-30T08:34:03.195Z,72.00
2019-03-30T08:36:31.048Z,71.40
2019-03-30T08:38:58.808Z,71.10
2019-03-30T08:41:26.690Z,70.00
2019-03-30T08:43:54.458Z,69.00
2019-03-30T08:46:22.400Z,68.10
2019-03-30T08:48:50.296Z,67.80
2019-03-30T08:51:20.784Z,66.90
2019-03-30T08:53:54.396Z,65.50
2019-03-30T08:56:17.648Z,64.80
2019-03-30T08:58:45.495Z,62.90
2019-03-30T09:01:13.361Z,62.30
2019-03-30T09:03:41.126Z,61.30
2019-03-30T09:06:09.098Z,61.40
2019-03-30T09:08:36.862Z,60.90
2019-03-30T09:11:04.753Z,60.00
2019-03-30T09:13:32.724Z,59.80
2019-03-30T09:16:00.511Z,58.70
2019-03-30T09:18:28.456Z,58.50
2019-03-30T09:20:56.376Z,58.40
2019-03-30T09:23:24.263Z,57.20
2019-03-30T09:25:52.048Z,55.90
2019-03-30T09:28:19.831Z,55.30
2019-03-30T09:30:47.578Z,53.80
2019-03-30T09:33:15.365Z,53.00
2019-03-30T09:35:43.206Z,51.00
2019-03-30T09:38:14.533Z,49.60
2019-03-30T09:40:40.739Z,48.00
2019-03-30T09:43:08.633Z,46.70
2019-03-30T09:45:36.495Z,46.10
2019-03-30T09:48:04.265Z,43.20
2019-03-30T09:50:32.117Z,41.90
2019-03-30T09:52:59.972Z,40.70
2019-03-30T09:55:27.822Z,38.90
2019-03-30T09:57:55.654Z,34.20
2019-03-30T10:00:23.417Z,31.50
2019-03-30T10:02:51.158Z,29.40
2019-03-30T10:05:18.908Z,28.30
2019-03-30T10:07:46.665Z,27.30
2019-03-30T10:10:14.457Z,26.30
2019-03-30T10:12:42.290Z,24.00
2019-03-30T10:15:10.385Z,24.00
2019-03-30T10:17:38.237Z,24.10
2019-03-30T10:20:06.314Z,23.60
2019-03-30T10:22:34.069Z,23.40
2019-03-30T10:25:01.937Z,23.90
2019-03-30T10:27:29.766Z,23.90
2019-03-30T10:29:57.627Z,23.80
2019-03-30T10:32:25.365Z,23.20
2019-03-30T10:34:53.132Z,22.40
2019-03-30T10:37:21.021Z,21.80
2019-03-30T10:39:48.805Z,21.70
2019-03-30T10:42:16.727Z,22.30
2019-03-30T10:44:44.449Z,23.10
2019-03-30T10:47:12.243Z,23.50
2019-03-30T10:49:39.982Z,23.20
2019-03-30T10:52:07.858Z,22.80
2019-03-30T10:54:35.581Z,22.40
2019-03-30T10:57:03.444Z,21.90
2019-03-30T10:59:31.302Z,22.50
2019-03-30T11:01:59.058Z,22.00
2019-03-30T11:04:26.853Z,21.70
2019-03-30T11:06:54.759Z,21.50
2019-03-30T11:09:22.694Z,21.60
2019-03-30T11:11:50.557Z,21.70
2019-03-30T11:14:18.313Z,21.30
2019-03-30T11:16:46.102Z,21.00
2019-03-30T11:19:13.848Z,21.70
2019-03-30T11:21:41.612Z,23.00
2019-03-30T11:24:09.394Z,23.40
2019-03-30T11:26:37.127Z,23.80
2019-03-30T11:29:04.997Z,23.60
2019-03-30T11:31:32.741Z,23.70
2019-03-30T11:34:00.607Z,23.90
2019-03-30T11:36:28.342Z,23.80
2019-03-30T11:38:56.105Z,23.70
2019-03-30T11:41:25.039Z,23.30
2019-03-30T11:43:53.009Z,22.70
2019-03-30T11:46:20.761Z,22.60
2019-03-30T11:48:48.516Z,22.40
2019-03-30T11:51:16.444Z,22.40
2019-03-30T11:53:44.307Z,22.60
2019-03-30T11:56:12.185Z,22.80
2019-03-30T11:58:40.247Z,23.10
2019-03-30T12:01:08.125Z,23.30
2019-03-30T12:03:36.047Z,24.00
2019-03-30T12:06:03.949Z,24.40
2019-03-30T12:08:31.857Z,24.80
2019-03-30T12:10:59.604Z,25.30
2019-03-30T12:13:27.466Z,26.40
2019-03-30T12:15:55.241Z,27.20
2019-03-30T12:18:23.241Z,27.80
2019-03-30T12:20:51.017Z,28.30
2019-03-30T12:23:19.054Z,28.70
2019-03-30T12:25:46.801Z,29.30
2019-03-30T12:28:14.603Z,29.80
2019-03-30T12:30:42.571Z,30.00
2019-03-30T12:33:10.465Z,30.80
2019-03-30T12:35:38.371Z,31.90
2019-03-30T12:38:06.263Z,32.50
2019-03-30T12:40:34.023Z,33.00
2019-03-30T12:43:01.823Z,33.40
2019-03-30T12:45:29.713Z,33.10
2019-03-30T12:47:57.669Z,32.70
2019-03-30T12:50:25.454Z,32.80
2019-03-30T12:52:53.317Z,33.10
2019-03-30T12:55:21.163Z,33.00
2019-03-30T12:57:48.889Z,32.80
2019-03-30T13:00:16.763Z,32.60
2019-03-30T13:02:46.413Z,32.30
2019-03-30T13:05:14.318Z,32.10
2019-03-30T13:07:42.099Z,32.20
2019-03-30T13:10:10.156Z,32.10
2019-03-30T13:12:38.001Z,32.20
2019-03-30T13:15:05.870Z,31.80
2019-03-30T13:17:33.627Z,31.50
2019-03-30T13:20:01.491Z,31.30
2019-03-30T13:22:29.374Z,31.20
2019-03-30T13:24:57.121Z,31.10
2019-03-30T13:27:24.878Z,31.00
2019-03-30T13:29:52.633Z,31.10
2019-03-30T13:32:20.411Z,31.40
2019-03-30T13:34:48.252Z,31.50
2019-03-30T13:37:16.715Z,31.50
2019-03-30T13:39:45.001Z,31.90
2019-03-30T13:42:12.857Z,32.00
2019-03-30T13:44:40.718Z,31.60
2019-03-30T13:47:08.445Z,31.20
2019-03-30T13:49:36.354Z,31.00
2019-03-30T13:52:04.232Z,31.20
2019-03-30T13:54:32.492Z,30.90
2019-03-30T13:57:00.251Z,30.90
2019-03-30T13:59:28.132Z,30.80
2019-03-30T14:01:56.002Z,30.60
2019-03-30T14:04:23.807Z,30.40
2019-03-30T14:06:51.690Z,30.30
2019-03-30T14:09:19.473Z,30.30
2019-03-30T14:11:47.197Z,30.30
2019-03-30T14:14:15.032Z,30.20
2019-03-30T14:16:42.773Z,30.20
2019-03-30T14:19:10.665Z,30.30
2019-03-30T14:21:38.500Z,30.40
2019-03-30T14:24:06.328Z,30.40
2019-03-30T14:26:34.180Z,30.50
2019-03-30T14:29:01.947Z,30.30
2019-03-30T14:31:29.674Z,30.10
2019-03-30T14:33:57.440Z,29.90
2019-03-30T14:36:25.192Z,30.00
2019-03-30T14:38:53.064Z,30.10
2019-03-30T14:41:20.933Z,30.00
2019-03-30T14:43:48.666Z,29.90
2019-03-30T14:46:16.528Z,29.70
2019-03-30T14:48:44.264Z,29.70
2019-03-30T14:51:12.018Z,29.90
2019-03-30T14:53:39.887Z,29.70
2019-03-30T14:56:07.733Z,29.90
2019-03-30T14:58:35.497Z,30.10
2019-03-30T15:01:03.513Z,30.30
2019-03-30T15:03:31.460Z,30.40
2019-03-30T15:05:59.348Z,30.40
2019-03-30T15:08:27.076Z,30.60
2019-03-30T15:10:54.833Z,30.90
2019-03-30T15:13:22.597Z,31.10
2019-03-30T15:15:50.354Z,31.10
2019-03-30T15:18:18.133Z,30.90
2019-03-30T15:20:45.983Z,31.10
2019-03-30T15:23:13.837Z,31.70
2019-03-30T15:25:41.714Z,31.90
2019-03-30T15:28:09.577Z,32.10
2019-03-30T15:30:37.397Z,32.40
2019-03-30T15:33:05.151Z,32.50
2019-03-30T15:35:32.905Z,32.30
2019-03-30T15:38:00.815Z,32.30
2019-03-30T15:40:28.670Z,32.40
2019-03-30T15:42:56.425Z,32.60
2019-03-30T15:45:24.151Z,32.80
2019-03-30T15:47:52.010Z,33.10
2019-03-30T15:50:19.872Z,33.20
2019-03-30T15:52:47.745Z,33.50
2019-03-30T15:55:15.469Z,33.80
2019-03-30T15:57:43.216Z,33.20
2019-03-30T16:00:12.190Z,33.50
2019-03-30T16:02:40.047Z,33.70
2019-03-30T16:05:08.117Z,33.80
2019-03-30T16:07:36.227Z,33.90
2019-03-30T16:10:04.771Z,33.90
2019-03-30T16:12:32.565Z,33.60
2019-03-30T16:15:00.397Z,33.50
2019-03-30T16:17:28.370Z,33.50
2019-03-30T16:19:56.225Z,33.80
2019-03-30T16:22:24.094Z,33.90
2019-03-30T16:24:51.811Z,34.10
2019-03-30T16:27:28.778Z,34.40
2019-03-30T16:29:49.403Z,34.60
2019-03-30T16:32:17.279Z,34.80
2019-03-30T16:34:45.061Z,35.00
2019-03-30T16:37:12.817Z,35.20
2019-03-30T16:39:40.648Z,35.40
2019-03-30T16:42:08.388Z,35.60
2019-03-30T16:44:36.146Z,35.80
2019-03-30T16:47:03.999Z,36.10
2019-03-30T16:49:31.740Z,36.40
2019-03-30T16:51:59.489Z,36.60
2019-03-30T16:54:27.228Z,36.70
2019-03-30T16:56:55.048Z,36.90
2019-03-30T16:59:22.932Z,36.90
2019-03-30T17:01:50.712Z,37.00
2019-03-30T17:04:18.634Z,37.30
2019-03-30T17:06:46.377Z,37.60
2019-03-30T17:09:14.227Z,38.20
2019-03-30T17:11:42.010Z,38.40
2019-03-30T17:14:09.764Z,38.50
2019-03-30T17:16:37.505Z,38.80
2019-03-30T17:19:05.256Z,39.10
2019-03-30T17:21:33.103Z,39.30
2019-03-30T17:24:00.879Z,39.50
2019-03-30T17:26:28.589Z,39.80
2019-03-30T17:28:56.351Z,39.90
2019-03-30T17:31:26.676Z,40.20
2019-03-30T17:33:54.502Z,40.30
2019-03-30T17:36:22.422Z,40.50
2019-03-30T17:38:50.161Z,40.80
2019-03-30T17:41:18.027Z,41.00
2019-03-30T17:43:45.851Z,41.40
2019-03-30T17:46:13.600Z,41.60
2019-03-30T17:48:41.450Z,41.80
2019-03-30T17:51:09.322Z,42.00
2019-03-30T17:53:39.502Z,42.20
2019-03-30T17:56:06.835Z,42.50
2019-03-30T17:58:35.040Z,42.80
2019-03-30T18:01:02.980Z,43.10
2019-03-30T18:03:30.842Z,43.40
2019-03-30T18:05:58.582Z,43.60
2019-03-30T18:08:26.457Z,43.70
2019-03-30T18:10:54.189Z,43.90
2019-03-30T18:13:22.027Z,44.10
2019-03-30T18:15:49.901Z,44.50
2019-03-30T18:18:17.785Z,44.70
2019-03-30T18:20:45.656Z,44.90
2019-03-30T18:23:13.409Z,45.10
2019-03-30T18:25:41.293Z,45.20
2019-03-30T18:28:09.136Z,45.30
2019-03-30T18:30:38.736Z,45.60
2019-03-30T18:33:06.689Z,45.60
2019-03-30T18:35:36.364Z,45.70
2019-03-30T18:38:04.207Z,45.80
2019-03-30T18:40:32.720Z,45.90
2019-03-30T18:43:02.033Z,46.30
2019-03-30T18:45:30.181Z,46.90
2019-03-30T18:48:10.451Z,47.10
2019-03-30T18:50:38.951Z,47.20
2019-03-30T18:53:06.814Z,47.70
2019-03-30T18:55:34.665Z,48.00
2019-03-30T18:58:02.549Z,48.50
2019-03-30T19:00:30.391Z,49.10
2019-03-30T19:02:58.275Z,49.50
2019-03-30T19:05:26.153Z,49.60
2019-03-30T19:07:53.925Z,49.80
2019-03-30T19:10:21.715Z,50.10
2019-03-30T19:12:49.477Z,50.30
2019-03-30T19:15:17.314Z,50.50
2019-03-30T19:17:45.226Z,50.70
2019-03-30T19:20:14.171Z,51.10
2019-03-30T19:22:41.936Z,51.50
2019-03-30T19:25:09.677Z,51.90
2019-03-30T19:27:37.458Z,52.20
2019-03-30T19:30:05.570Z,52.50
2019-03-30T19:32:33.453Z,52.70
2019-03-30T19:35:01.349Z,53.10
2019-03-30T19:37:29.249Z,53.50
2019-03-30T19:39:57.101Z,54.10
2019-03-30T19:42:24.991Z,54.60
2019-03-30T19:44:52.840Z,54.90
2019-03-30T19:47:20.583Z,55.40
2019-03-30T19:49:48.421Z,55.90
2019-03-30T19:52:16.179Z,56.30
2019-03-30T19:54:43.914Z,56.50
2019-03-30T19:57:11.690Z,56.90
2019-03-30T19:59:39.431Z,57.10
2019-03-30T20:02:07.309Z,57.40
2019-03-30T20:04:35.190Z,57.50
2019-03-30T20:07:03.155Z,57.70
2019-03-30T20:09:30.978Z,58.00
2019-03-30T20:11:58.838Z,58.40
2019-03-30T20:14:26.568Z,58.60
2019-03-30T20:16:54.456Z,59.00
2019-03-30T20:19:22.285Z,59.40
2019-03-30T20:21:50.200Z,59.70
2019-03-30T20:24:17.930Z,60.00
2019-03-30T20:26:45.686Z,60.40
2019-03-30T20:29:24.714Z,60.70
2019-03-30T20:31:43.194Z,61.00
2019-03-30T20:34:10.925Z,61.50
2019-03-30T20:36:38.880Z,61.50
2019-03-30T20:39:08.368Z,61.60
2019-03-30T20:41:36.436Z,61.90
2019-03-30T20:44:04.387Z,62.20
2019-03-30T20:46:32.298Z,62.80
2019-03-30T20:49:00.279Z,63.70
2019-03-30T20:51:28.510Z,64.30
2019-03-30T20:53:56.426Z,64.80
2019-03-30T20:56:24.354Z,65.40
2019-03-30T20:58:52.256Z,65.80
2019-03-30T21:01:20.206Z,65.80
2019-03-30T21:03:48.032Z,66.20
2019-03-30T21:06:15.942Z,66.50
2019-03-30T21:08:43.836Z,67.00
2019-03-30T21:11:11.708Z,67.30
2019-03-30T21:13:39.606Z,67.80
2019-03-30T21:16:07.625Z,68.10
2019-03-30T21:18:35.536Z,68.30
2019-03-30T21:21:03.463Z,68.60
2019-03-30T21:23:31.346Z,68.60
2019-03-30T21:25:59.262Z,68.80
2019-03-30T21:28:27.142Z,68.90
2019-03-30T21:30:55.084Z,69.10
2019-03-30T21:33:22.957Z,69.70
2019-03-30T21:35:50.902Z,70.20
2019-03-30T21:38:18.798Z,70.80
2019-03-30T21:40:46.610Z,71.10
2019-03-30T21:43:14.504Z,71.50
2019-03-30T21:45:42.431Z,71.90
2019-03-30T21:48:10.340Z,72.20
2019-03-30T21:50:38.278Z,72.50
2019-03-30T21:53:06.162Z,72.80
2019-03-30T21:55:34.058Z,73.30
2019-03-30T21:58:01.957Z,73.70
2019-03-30T22:00:34.554Z,74.20
2019-03-30T22:03:02.474Z,74.50
2019-03-30T22:05:30.446Z,74.50
2019-03-30T22:07:58.446Z,74.30
2019-03-30T22:10:29.346Z,74.40
2019-03-30T22:12:57.271Z,74.60
2019-03-30T22:15:26.780Z,74.90
2019-03-30T22:17:54.581Z,75.30
2019-03-30T22:20:22.471Z,75.70
2019-03-30T22:22:50.387Z,75.70
2019-03-30T22:25:18.334Z,76.10
2019-03-30T22:27:46.734Z,76.50
2019-03-30T22:30:24.711Z,76.70
2019-03-30T22:32:44.437Z,76.80
2019-03-30T22:35:12.450Z,77.20
2019-03-30T22:37:40.430Z,77.50
2019-03-30T22:40:08.645Z,77.80
2019-03-30T22:42:36.526Z,78.00
2019-03-30T22:45:05.253Z,78.00
2019-03-30T22:47:33.293Z,78.20
2019-03-30T22:50:01.280Z,78.20
2019-03-30T22:52:29.193Z,78.50
2019-03-30T22:54:57.100Z,78.60
2019-03-30T22:57:25.012Z,78.90
2019-03-30T22:59:52.932Z,79.40
2019-03-30T23:02:21.048Z,79.80
2019-03-30T23:04:49.148Z,79.90
2019-03-30T23:07:17.105Z,80.10
2019-03-30T23:09:45.055Z,80.40
2019-03-30T23:12:12.961Z,80.70
2019-03-30T23:14:40.846Z,81.10
2019-03-30T23:17:08.738Z,81.40
2019-03-30T23:19:36.756Z,81.70
2019-03-30T23:22:04.740Z,81.90
2019-03-30T23:24:32.646Z,82.20
2019-03-30T23:27:00.874Z,82.40
2019-03-30T23:29:28.788Z,82.90
2019-03-30T23:31:56.682Z,83.20
2019-03-30T23:34:24.568Z,83.40
2019-03-30T23:36:52.452Z,83.40
2019-03-30T23:39:20.370Z,83.20
2019-03-30T23:41:48.330Z,83.10
2019-03-30T23:44:16.274Z,83.00
2019-03-30T23:46:44.109Z,83.00
2019-03-30T23:49:12.098Z,83.00
2019-03-30T23:51:40.012Z,83.10
2019-03-30T23:54:12.814Z,83.30
2019-03-30T23:56:40.722Z,83.30
2019-03-30T23:59:08.617Z,83.50
